M/V Eugenie J. Huger — WDG4974 — position and weather

sailwx.info

Track history (hours):
 
Tides and Currents Weather Stations Pressure Air Temp Water Temp Dewpoint Dewpoint Depression Visibility Wind Speed Wind Dir Waves Ship Positions

M/V Eugenie J. Huger

Owner: Canal Barge Company, Inc, Belle Chasse, LA. More information available from US FCC via Universal Licensing System and Coast Guard Vessel Documentation Center.

Last reported at 2018-Feb-20 11:00 UTC. Time now 2018-Feb-20 11:12 UTC.
Position N 30°06' W 093°19'.

Type: Towing. MMSI: 367541980.

Date/timePositionNaut miles runAvg speedWind from/ knotsBaromVisibWave heightAir tempDewpointWater temp
2018-Feb-20 11:00N 30°06' W 093°19'0 0.0
2018-Feb-20 10:30N 30°06' W 093°19'0 0.0
2018-Feb-20 10:00N 30°06' W 093°19'0 0.0
2018-Feb-20 09:28N 30°06' W 093°19'0 0.0
2018-Feb-20 08:59N 30°06' W 093°19'0 0.0
2018-Feb-20 08:30N 30°06' W 093°19'0 0.0
2018-Feb-20 07:55N 30°06' W 093°19'0 0.0
2018-Feb-20 07:30N 30°06' W 093°19'0 0.0
2018-Feb-20 07:00N 30°06' W 093°19'0 0.0
2018-Feb-20 06:30N 30°06' W 093°19'0 0.0
2018-Feb-20 05:59N 30°06' W 093°19'0 0.0
2018-Feb-20 05:30N 30°06' W 093°19'0 0.0
2018-Feb-20 05:00N 30°06' W 093°19'0 0.0
2018-Feb-20 04:30N 30°06' W 093°19'0 0.0
2018-Feb-20 04:00N 30°06' W 093°19'0 0.0
2018-Feb-20 03:29N 30°06' W 093°19'0 0.0
2018-Feb-20 03:00N 30°06' W 093°19'0 0.0
2018-Feb-20 02:30N 30°06' W 093°19'0 0.0
2018-Feb-20 02:00N 30°06' W 093°19'0 0.0
2018-Feb-20 01:30N 30°06' W 093°19'0 0.0
2018-Feb-20 01:00N 30°06' W 093°19'0 0.1
2018-Feb-20 00:30N 30°06' W 093°19'0 0.0
2018-Feb-20 00:00N 30°06' W 093°19'0 0.0
2018-Feb-19 23:30N 30°06' W 093°19'3 5.8
2018-Feb-19 23:00N 30°04' W 093°21'1 2.0
2018-Feb-19 22:30N 30°04' W 093°22'0 0.0
2018-Feb-19 22:00N 30°04' W 093°22'0 0.0
2018-Feb-19 21:30N 30°04' W 093°22'0 0.0
2018-Feb-19 21:00N 30°04' W 093°22'0 0.0
2018-Feb-19 20:30N 30°04' W 093°22'0 0.0
2018-Feb-19 20:00N 30°04' W 093°22'0 0.0
2018-Feb-19 19:30N 30°04' W 093°22'0 0.0
2018-Feb-19 19:00N 30°04' W 093°22'0 0.0
2018-Feb-19 18:30N 30°04' W 093°22'0 0.0
2018-Feb-19 18:00N 30°04' W 093°22'0 0.0
2018-Feb-19 17:30N 30°04' W 093°22'0 0.0
2018-Feb-19 17:00N 30°04' W 093°22'0 0.0
2018-Feb-19 16:30N 30°04' W 093°22'0 0.0
2018-Feb-19 16:00N 30°04' W 093°22'1 1.9
2018-Feb-19 15:30N 30°04' W 093°21'1 1.8
2018-Feb-19 15:00N 30°04' W 093°22'0 0.0
2018-Feb-19 14:30N 30°04' W 093°22'0 0.0
2018-Feb-19 14:00N 30°04' W 093°22'0 0.0
2018-Feb-19 13:29N 30°04' W 093°22'0 0.0
2018-Feb-19 13:00N 30°04' W 093°22'0 0.2
2018-Feb-19 12:30N 30°04' W 093°22'1 1.8
2018-Feb-19 12:00N 30°04' W 093°23'2 3.9
2018-Feb-19 11:30N 30°04' W 093°26'0 0.6
2018-Feb-19 11:00N 30°04' W 093°26'0 0.0
2018-Feb-19 10:30N 30°04' W 093°26'0 0.0
2018-Feb-19 10:00N 30°04' W 093°26'0 0.0
2018-Feb-19 09:28N 30°04' W 093°26'0 0.0
2018-Feb-19 09:00N 30°04' W 093°26'0 0.0
2018-Feb-19 08:30N 30°04' W 093°26'0 0.0
2018-Feb-19 07:58N 30°04' W 093°26'0 0.0
2018-Feb-19 07:30N 30°04' W 093°26'0 0.0
2018-Feb-19 07:00N 30°04' W 093°26'0 0.0
2018-Feb-19 06:30N 30°04' W 093°26'0 0.0
2018-Feb-19 06:00N 30°04' W 093°26'0 0.0
2018-Feb-19 05:30N 30°04' W 093°26'0 0.0
2018-Feb-19 05:00N 30°04' W 093°26'0 0.0
2018-Feb-19 04:29N 30°04' W 093°26'0 0.0
2018-Feb-19 04:00N 30°04' W 093°26'0 0.0
2018-Feb-19 03:30N 30°04' W 093°26'0 0.1
2018-Feb-19 03:00N 30°04' W 093°26'0 0.0
2018-Feb-19 02:30N 30°04' W 093°26'0 0.0
2018-Feb-19 02:00N 30°04' W 093°26'0 0.0
2018-Feb-19 01:29N 30°04' W 093°26'0 0.6
2018-Feb-19 01:00N 30°04' W 093°26'2 4.1
2018-Feb-19 00:30N 30°04' W 093°29'2 4.3
2018-Feb-19 00:00N 30°04' W 093°31'2 4.5
2018-Feb-18 23:30N 30°04' W 093°34'2 4.3
2018-Feb-18 23:00N 30°04' W 093°36'3 5.0
2018-Feb-18 22:30N 30°03' W 093°39'3 5.5
2018-Feb-18 22:00N 30°03' W 093°42'2 3.9
2018-Feb-18 21:30N 30°02' W 093°44'3 5.2
2018-Feb-18 21:00N 30°00' W 093°46'3 5.8
2018-Feb-18 20:30N 29°59' W 093°49'2 3.8
2018-Feb-18 20:00N 29°58' W 093°51'0 0.0
2018-Feb-18 19:29N 29°58' W 093°51'1 3.1
2018-Feb-18 19:00N 29°57' W 093°52'2 4.7
2018-Feb-18 18:30N 29°55' W 093°53'3 5.6
2018-Feb-18 18:00N 29°53' W 093°55'3 5.2
2018-Feb-18 17:30N 29°51' W 093°57'3 5.3
2018-Feb-18 17:00N 29°49' W 093°59'1 2.8
2018-Feb-18 16:30N 29°48' W 094°00'0 0.0
2018-Feb-18 16:00N 29°48' W 094°00'0 0.0
2018-Feb-18 15:30N 29°48' W 094°00'0 0.0
2018-Feb-18 15:00N 29°48' W 094°00'0 0.0
2018-Feb-18 14:30N 29°48' W 094°00'0 0.0
2018-Feb-18 14:00N 29°48' W 094°00'0 0.0
2018-Feb-18 13:30N 29°48' W 094°00'0 0.0
2018-Feb-18 13:00N 29°48' W 094°00'0 0.0
2018-Feb-18 12:30N 29°48' W 094°00'0 0.0
2018-Feb-18 12:00N 29°48' W 094°00'0 0.0
2018-Feb-18 11:30N 29°48' W 094°00'0 0.0
2018-Feb-18 11:00N 29°48' W 094°00'0 0.0
2018-Feb-18 10:30N 29°48' W 094°00'0 0.0
2018-Feb-18 10:00N 29°48' W 094°00'0 0.0
2018-Feb-18 09:30N 29°48' W 094°00'0 0.0
2018-Feb-18 09:00N 29°48' W 094°00'1 1.8
2018-Feb-18 08:30N 29°47' W 094°01'2 4.5
2018-Feb-18 08:00N 29°46' W 094°03'2 4.4
2018-Feb-18 07:30N 29°44' W 094°05'3 5.0
2018-Feb-18 07:00N 29°43' W 094°07'2 4.4
2018-Feb-18 06:30N 29°41' W 094°09'2 3.7
2018-Feb-18 06:00N 29°41' W 094°11'2 4.4
2018-Feb-18 05:30N 29°40' W 094°14'3 5.1
2018-Feb-18 05:00N 29°39' W 094°16'2 4.0
2018-Feb-18 04:30N 29°38' W 094°18'2 1.8
2018-Feb-18 03:36N 29°37' W 094°20'0 0.0
2018-Feb-18 03:30N 29°37' W 094°20'0 0.1
2018-Feb-18 02:59N 29°37' W 094°20'0 0.0
2018-Feb-18 02:29N 29°37' W 094°20'0 0.0
2018-Feb-18 02:00N 29°37' W 094°20'0 0.0
2018-Feb-18 01:30N 29°37' W 094°20'0 0.0
2018-Feb-18 01:00N 29°37' W 094°20'0 0.0
2018-Feb-18 00:30N 29°37' W 094°20'0 0.0
2018-Feb-18 00:00N 29°37' W 094°20'2 3.5
2018-Feb-17 23:30N 29°36' W 094°22'2 3.9
2018-Feb-17 23:00N 29°36' W 094°24'2 3.6
2018-Feb-17 22:30N 29°34' W 094°25'2 4.7
2018-Feb-17 22:00N 29°34' W 094°28'1 2.0
2018-Feb-17 21:29N 29°33' W 094°28'2 3.3
2018-Feb-17 20:57N 29°31' W 094°30'4 3.0
2018-Feb-17 19:48N 29°30' W 094°33'11 1.0
2018-Feb-17 08:42N 29°25' W 094°44'0 0.0
2018-Feb-17 07:36N 29°25' W 094°44'0 0.0
2018-Feb-17 07:25N 29°25' W 094°44'0 0.0
2018-Feb-17 06:58N 29°25' W 094°44'0 0.0
2018-Feb-17 06:26N 29°25' W 094°44'0 0.0
2018-Feb-17 05:59N 29°25' W 094°44'0 0.0
2018-Feb-17 05:29N 29°25' W 094°44'0 0.0
2018-Feb-17 04:48N 29°25' W 094°44'0 0.0
2018-Feb-17 04:30N 29°25' W 094°44'0 0.0
2018-Feb-17 03:52N 29°25' W 094°44'0 0.0
2018-Feb-17 02:18N 29°25' W 094°44'0 0.0
2018-Feb-17 01:55N 29°25' W 094°44'0 0.0
2018-Feb-17 01:14N 29°25' W 094°44'0 0.0
2018-Feb-17 00:46N 29°25' W 094°44'0 0.1
2018-Feb-17 00:29N 29°25' W 094°44'0 0.0
2018-Feb-16 23:57N 29°25' W 094°44'0 0.1
2018-Feb-16 23:30N 29°25' W 094°44'2 3.6
2018-Feb-16 23:00N 29°24' W 094°46'3 3.8
2018-Feb-16 22:19N 29°22' W 094°48'1 3.0
2018-Feb-16 21:59N 29°23' W 094°49'6 3.3
2018-Feb-16 20:02N 29°29' W 094°52'1 7.2
2018-Feb-16 19:57N 29°30' W 094°52'3 7.5
2018-Feb-16 19:30N 29°32' W 094°54'4 7.7
2018-Feb-16 19:00N 29°36' W 094°57'4 7.7
2018-Feb-16 18:30N 29°39' W 094°58'4 7.9
2018-Feb-16 18:00N 29°42' W 095°01'3 6.8
2018-Feb-16 17:30N 29°45' W 095°04'2 4.0
2018-Feb-16 17:00N 29°47' W 095°05'0 0.0
2018-Feb-16 16:30N 29°47' W 095°05'0 0.0
2018-Feb-16 16:00N 29°47' W 095°05'0 0.0
2018-Feb-16 15:28N 29°47' W 095°05'0 0.0
2018-Feb-16 15:00N 29°47' W 095°05'0 0.0
2018-Feb-16 14:30N 29°47' W 095°05'0 0.0
2018-Feb-16 14:00N 29°47' W 095°05'0 0.0
2018-Feb-16 13:30N 29°47' W 095°05'0 0.0
2018-Feb-16 13:00N 29°47' W 095°05'0 0.0
2018-Feb-16 12:30N 29°47' W 095°05'0 0.0
2018-Feb-16 12:00N 29°47' W 095°05'0 0.0
2018-Feb-16 11:11N 29°47' W 095°05'0 0.0
2018-Feb-16 10:59N 29°47' W 095°05'0 0.0
2018-Feb-16 06:00N 29°47' W 095°05'0 0.0
2018-Feb-16 05:20N 29°47' W 095°05'0 0.0
2018-Feb-16 04:20N 29°47' W 095°05'0 0.0
2018-Feb-16 03:54N 29°47' W 095°05'0 0.0
2018-Feb-16 03:13N 29°47' W 095°05'0 0.0
2018-Feb-16 02:51N 29°47' W 095°05'0 0.0
2018-Feb-16 02:14N 29°47' W 095°05'0 0.0
2018-Feb-16 02:00N 29°47' W 095°05'1 0.1
2018-Feb-15 18:11N 29°47' W 095°04'0 0.0
2018-Feb-15 17:53N 29°47' W 095°04'0 0.0
2018-Feb-15 17:26N 29°47' W 095°04'0 0.0
2018-Feb-15 16:59N 29°47' W 095°04'0 0.0
2018-Feb-15 15:08N 29°47' W 095°04'0 0.0
2018-Feb-15 15:00N 29°47' W 095°04'0 0.0
2018-Feb-15 11:15N 29°47' W 095°04'0 0.0
2018-Feb-15 10:56N 29°47' W 095°04'0 0.0
2018-Feb-15 10:23N 29°47' W 095°04'0 0.0
2018-Feb-15 10:00N 29°47' W 095°04'0 0.5
2018-Feb-15 09:30N 29°47' W 095°04'0 0.0
2018-Feb-15 08:58N 29°47' W 095°04'0 0.1
2018-Feb-15 08:28N 29°47' W 095°04'0 0.0
2018-Feb-15 08:00N 29°47' W 095°04'0 0.0
2018-Feb-15 07:30N 29°47' W 095°04'0 0.0
2018-Feb-15 06:59N 29°47' W 095°04'0 0.0
2018-Feb-15 06:30N 29°47' W 095°04'0 0.0
2018-Feb-15 06:00N 29°47' W 095°04'0 0.0
2018-Feb-15 05:30N 29°47' W 095°04'0 0.0
2018-Feb-15 05:00N 29°47' W 095°04'0 0.0
2018-Feb-15 04:23N 29°47' W 095°04'0 0.0
2018-Feb-15 04:00N 29°47' W 095°04'0 0.0
2018-Feb-15 03:15N 29°47' W 095°04'0 0.0
2018-Feb-15 02:56N 29°47' W 095°04'0 0.0
2018-Feb-15 02:26N 29°47' W 095°04'2 1.4
2018-Feb-15 00:49N 29°46' W 095°05'3 5.9
2018-Feb-15 00:22N 29°44' W 095°08'3 0.4
2018-Feb-14 15:20N 29°45' W 095°12'4 6.5
2018-Feb-14 14:43N 29°44' W 095°07'2 6.5
2018-Feb-14 14:27N 29°45' W 095°06'2 0.0
2018-Feb-13 01:56N 29°45' W 095°04'3 6.3
2018-Feb-13 01:30N 29°43' W 095°01'3 6.5
2018-Feb-13 01:00N 29°41' W 094°59'4 7.7
2018-Feb-13 00:30N 29°37' W 094°57'4 7.8
2018-Feb-13 00:00N 29°34' W 094°55'4 7.2
2018-Feb-12 23:30N 29°31' W 094°53'21 0.9
2018-Feb-11 23:30N 29°32' W 094°29'3 4.2
2018-Feb-11 22:51N 29°34' W 094°27'2 5.1
2018-Feb-11 22:30N 29°34' W 094°25'7 3.4
2018-Feb-11 20:24N 29°38' W 094°18'3 6.0
2018-Feb-11 19:57N 29°39' W 094°15'3 6.0
2018-Feb-11 19:29N 29°41' W 094°12'3 5.6
2018-Feb-11 19:00N 29°41' W 094°09'3 5.6
2018-Feb-11 18:30N 29°43' W 094°07'3 5.7
2018-Feb-11 18:00N 29°45' W 094°04'3 5.6
2018-Feb-11 17:30N 29°47' W 094°02'2 4.9
2018-Feb-11 17:00N 29°49' W 093°60'2 4.8
2018-Feb-11 16:30N 29°50' W 093°57'3 6.0
2018-Feb-11 16:00N 29°52' W 093°56'4 7.1
2018-Feb-11 15:30N 29°55' W 093°53'3 5.4
2018-Feb-11 15:00N 29°57' W 093°52'1 2.5
2018-Feb-11 14:30N 29°58' W 093°51'0 0.0
2018-Feb-11 14:00N 29°58' W 093°51'0 0.0
2018-Feb-11 13:30N 29°58' W 093°51'0 0.0
2018-Feb-11 13:00N 29°58' W 093°51'0 0.0
2018-Feb-11 12:30N 29°58' W 093°51'0 0.0
2018-Feb-11 12:00N 29°58' W 093°51'0 0.0
2018-Feb-11 11:30N 29°58' W 093°51'0 0.0
2018-Feb-11 11:00N 29°58' W 093°51'0 0.0
2018-Feb-11 10:30N 29°58' W 093°51'0 0.0
2018-Feb-11 10:00N 29°58' W 093°51'0 0.0
2018-Feb-11 09:30N 29°58' W 093°51'0 0.0
2018-Feb-11 09:00N 29°58' W 093°51'0 0.0
2018-Feb-11 08:30N 29°58' W 093°51'0 0.0
2018-Feb-11 08:00N 29°58' W 093°51'0 0.0
2018-Feb-11 07:30N 29°58' W 093°51'0 0.2
2018-Feb-11 07:00N 29°58' W 093°51'0 0.3
2018-Feb-11 06:30N 29°58' W 093°51'0 0.6
2018-Feb-11 06:00N 29°58' W 093°50'3 5.7
2018-Feb-11 05:30N 29°59' W 093°47'2 3.7
2018-Feb-11 05:00N 30°01' W 093°46'0 0.0
2018-Feb-11 04:30N 30°01' W 093°46'0 0.0
2018-Feb-11 03:59N 30°01' W 093°46'0 0.1
2018-Feb-11 03:30N 30°01' W 093°46'0 0.0
2018-Feb-11 03:00N 30°01' W 093°46'0 0.1
2018-Feb-11 02:30N 30°01' W 093°46'0 0.0
2018-Feb-11 02:00N 30°01' W 093°46'0 0.0
2018-Feb-11 01:30N 30°01' W 093°46'0 0.0
2018-Feb-11 01:00N 30°01' W 093°46'0 0.1
2018-Feb-11 00:30N 30°01' W 093°46'0 0.1
2018-Feb-11 00:00N 30°01' W 093°46'1 1.8
2018-Feb-10 23:30N 30°01' W 093°45'2 4.2
2018-Feb-10 23:00N 30°03' W 093°43'2 4.4
2018-Feb-10 22:30N 30°04' W 093°41'3 4.8
2018-Feb-10 21:58N 30°04' W 093°38'2 4.7
2018-Feb-10 21:30N 30°04' W 093°35'3 4.5
2018-Feb-10 20:56N 30°04' W 093°33'2 4.7
2018-Feb-10 20:29N 30°04' W 093°30'2 4.6
2018-Feb-10 20:00N 30°04' W 093°28'2 4.6
2018-Feb-10 19:30N 30°04' W 093°25'2 4.7
2018-Feb-10 19:00N 30°04' W 093°22'2 3.6
2018-Feb-10 18:30N 30°04' W 093°20'2 4.3
2018-Feb-10 18:00N 30°06' W 093°19'1 1.1
2018-Feb-10 17:30N 30°06' W 093°18'0 0.1
2018-Feb-10 17:00N 30°06' W 093°18'0 0.0
2018-Feb-10 16:30N 30°06' W 093°18'0 0.1
2018-Feb-10 16:00N 30°06' W 093°18'0 0.1
2018-Feb-10 15:30N 30°06' W 093°18'0 0.0
2018-Feb-10 15:00N 30°06' W 093°18'0 0.0
2018-Feb-10 14:30N 30°06' W 093°18'0 0.0
2018-Feb-10 14:00N 30°06' W 093°18'0 0.0
2018-Feb-10 13:30N 30°06' W 093°18'0 0.0
2018-Feb-10 13:00N 30°06' W 093°18'0 0.0
2018-Feb-10 12:30N 30°06' W 093°18'0 0.0
2018-Feb-10 12:00N 30°06' W 093°18'0 0.0
2018-Feb-10 11:30N 30°06' W 093°18'0 0.0
2018-Feb-10 11:00N 30°06' W 093°18'  
Track history (hours):
 
Tides and Currents Weather Stations Pressure Air Temp Water Temp Dewpoint Dewpoint Depression Visibility Wind Speed Wind Dir Waves Ship Positions

M/V Eugenie J. Huger

Owner: Canal Barge Company, Inc, Belle Chasse, LA. More information available from US FCC via Universal Licensing System and Coast Guard Vessel Documentation Center.

Last reported at 2018-Feb-20 11:00 UTC. Time now 2018-Feb-20 11:12 UTC.
Position N 30°06' W 093°19'.

Type: Towing. MMSI: 367541980.

Date/timePositionNaut miles runAvg speedWind from/ knotsBaromVisibWave heightAir tempDewpointWater temp
2018-Feb-20 11:00N 30°06' W 093°19'0 0.0
2018-Feb-20 10:30N 30°06' W 093°19'0 0.0
2018-Feb-20 10:00N 30°06' W 093°19'0 0.0
2018-Feb-20 09:28N 30°06' W 093°19'0 0.0
2018-Feb-20 08:59N 30°06' W 093°19'0 0.0
2018-Feb-20 08:30N 30°06' W 093°19'0 0.0
2018-Feb-20 07:55N 30°06' W 093°19'0 0.0
2018-Feb-20 07:30N 30°06' W 093°19'0 0.0
2018-Feb-20 07:00N 30°06' W 093°19'0 0.0
2018-Feb-20 06:30N 30°06' W 093°19'0 0.0
2018-Feb-20 05:59N 30°06' W 093°19'0 0.0
2018-Feb-20 05:30N 30°06' W 093°19'0 0.0
2018-Feb-20 05:00N 30°06' W 093°19'0 0.0
2018-Feb-20 04:30N 30°06' W 093°19'0 0.0
2018-Feb-20 04:00N 30°06' W 093°19'0 0.0
2018-Feb-20 03:29N 30°06' W 093°19'0 0.0
2018-Feb-20 03:00N 30°06' W 093°19'0 0.0
2018-Feb-20 02:30N 30°06' W 093°19'0 0.0
2018-Feb-20 02:00N 30°06' W 093°19'0 0.0
2018-Feb-20 01:30N 30°06' W 093°19'0 0.0
2018-Feb-20 01:00N 30°06' W 093°19'0 0.1
2018-Feb-20 00:30N 30°06' W 093°19'0 0.0
2018-Feb-20 00:00N 30°06' W 093°19'0 0.0
2018-Feb-19 23:30N 30°06' W 093°19'3 5.8
2018-Feb-19 23:00N 30°04' W 093°21'1 2.0
2018-Feb-19 22:30N 30°04' W 093°22'0 0.0
2018-Feb-19 22:00N 30°04' W 093°22'0 0.0
2018-Feb-19 21:30N 30°04' W 093°22'0 0.0
2018-Feb-19 21:00N 30°04' W 093°22'0 0.0
2018-Feb-19 20:30N 30°04' W 093°22'0 0.0
2018-Feb-19 20:00N 30°04' W 093°22'0 0.0
2018-Feb-19 19:30N 30°04' W 093°22'0 0.0
2018-Feb-19 19:00N 30°04' W 093°22'0 0.0
2018-Feb-19 18:30N 30°04' W 093°22'0 0.0
2018-Feb-19 18:00N 30°04' W 093°22'0 0.0
2018-Feb-19 17:30N 30°04' W 093°22'0 0.0
2018-Feb-19 17:00N 30°04' W 093°22'0 0.0
2018-Feb-19 16:30N 30°04' W 093°22'0 0.0
2018-Feb-19 16:00N 30°04' W 093°22'1 1.9
2018-Feb-19 15:30N 30°04' W 093°21'1 1.8
2018-Feb-19 15:00N 30°04' W 093°22'0 0.0
2018-Feb-19 14:30N 30°04' W 093°22'0 0.0
2018-Feb-19 14:00N 30°04' W 093°22'0 0.0
2018-Feb-19 13:29N 30°04' W 093°22'0 0.0
2018-Feb-19 13:00N 30°04' W 093°22'0 0.2
2018-Feb-19 12:30N 30°04' W 093°22'1 1.8
2018-Feb-19 12:00N 30°04' W 093°23'2 3.9
2018-Feb-19 11:30N 30°04' W 093°26'0 0.6
2018-Feb-19 11:00N 30°04' W 093°26'0 0.0
2018-Feb-19 10:30N 30°04' W 093°26'0 0.0
2018-Feb-19 10:00N 30°04' W 093°26'0 0.0
2018-Feb-19 09:28N 30°04' W 093°26'0 0.0
2018-Feb-19 09:00N 30°04' W 093°26'0 0.0
2018-Feb-19 08:30N 30°04' W 093°26'0 0.0
2018-Feb-19 07:58N 30°04' W 093°26'0 0.0
2018-Feb-19 07:30N 30°04' W 093°26'0 0.0
2018-Feb-19 07:00N 30°04' W 093°26'0 0.0
2018-Feb-19 06:30N 30°04' W 093°26'0 0.0
2018-Feb-19 06:00N 30°04' W 093°26'0 0.0
2018-Feb-19 05:30N 30°04' W 093°26'0 0.0
2018-Feb-19 05:00N 30°04' W 093°26'0 0.0
2018-Feb-19 04:29N 30°04' W 093°26'0 0.0
2018-Feb-19 04:00N 30°04' W 093°26'0 0.0
2018-Feb-19 03:30N 30°04' W 093°26'0 0.1
2018-Feb-19 03:00N 30°04' W 093°26'0 0.0
2018-Feb-19 02:30N 30°04' W 093°26'0 0.0
2018-Feb-19 02:00N 30°04' W 093°26'0 0.0
2018-Feb-19 01:29N 30°04' W 093°26'0 0.6
2018-Feb-19 01:00N 30°04' W 093°26'2 4.1
2018-Feb-19 00:30N 30°04' W 093°29'2 4.3
2018-Feb-19 00:00N 30°04' W 093°31'2 4.5
2018-Feb-18 23:30N 30°04' W 093°34'2 4.3
2018-Feb-18 23:00N 30°04' W 093°36'3 5.0
2018-Feb-18 22:30N 30°03' W 093°39'3 5.5
2018-Feb-18 22:00N 30°03' W 093°42'2 3.9
2018-Feb-18 21:30N 30°02' W 093°44'3 5.2
2018-Feb-18 21:00N 30°00' W 093°46'3 5.8
2018-Feb-18 20:30N 29°59' W 093°49'2 3.8
2018-Feb-18 20:00N 29°58' W 093°51'0 0.0
2018-Feb-18 19:29N 29°58' W 093°51'1 3.1
2018-Feb-18 19:00N 29°57' W 093°52'2 4.7
2018-Feb-18 18:30N 29°55' W 093°53'3 5.6
2018-Feb-18 18:00N 29°53' W 093°55'3 5.2
2018-Feb-18 17:30N 29°51' W 093°57'3 5.3
2018-Feb-18 17:00N 29°49' W 093°59'1 2.8
2018-Feb-18 16:30N 29°48' W 094°00'0 0.0
2018-Feb-18 16:00N 29°48' W 094°00'0 0.0
2018-Feb-18 15:30N 29°48' W 094°00'0 0.0
2018-Feb-18 15:00N 29°48' W 094°00'0 0.0
2018-Feb-18 14:30N 29°48' W 094°00'0 0.0
2018-Feb-18 14:00N 29°48' W 094°00'0 0.0
2018-Feb-18 13:30N 29°48' W 094°00'0 0.0
2018-Feb-18 13:00N 29°48' W 094°00'0 0.0
2018-Feb-18 12:30N 29°48' W 094°00'0 0.0
2018-Feb-18 12:00N 29°48' W 094°00'0 0.0
2018-Feb-18 11:30N 29°48' W 094°00'0 0.0
2018-Feb-18 11:00N 29°48' W 094°00'0 0.0
2018-Feb-18 10:30N 29°48' W 094°00'0 0.0
2018-Feb-18 10:00N 29°48' W 094°00'0 0.0
2018-Feb-18 09:30N 29°48' W 094°00'0 0.0
2018-Feb-18 09:00N 29°48' W 094°00'1 1.8
2018-Feb-18 08:30N 29°47' W 094°01'2 4.5
2018-Feb-18 08:00N 29°46' W 094°03'2 4.4
2018-Feb-18 07:30N 29°44' W 094°05'3 5.0
2018-Feb-18 07:00N 29°43' W 094°07'2 4.4
2018-Feb-18 06:30N 29°41' W 094°09'2 3.7
2018-Feb-18 06:00N 29°41' W 094°11'2 4.4
2018-Feb-18 05:30N 29°40' W 094°14'3 5.1
2018-Feb-18 05:00N 29°39' W 094°16'2 4.0
2018-Feb-18 04:30N 29°38' W 094°18'2 1.8
2018-Feb-18 03:36N 29°37' W 094°20'0 0.0
2018-Feb-18 03:30N 29°37' W 094°20'0 0.1
2018-Feb-18 02:59N 29°37' W 094°20'0 0.0
2018-Feb-18 02:29N 29°37' W 094°20'0 0.0
2018-Feb-18 02:00N 29°37' W 094°20'0 0.0
2018-Feb-18 01:30N 29°37' W 094°20'0 0.0
2018-Feb-18 01:00N 29°37' W 094°20'0 0.0
2018-Feb-18 00:30N 29°37' W 094°20'0 0.0
2018-Feb-18 00:00N 29°37' W 094°20'2 3.5
2018-Feb-17 23:30N 29°36' W 094°22'2 3.9
2018-Feb-17 23:00N 29°36' W 094°24'2 3.6
2018-Feb-17 22:30N 29°34' W 094°25'2 4.7
2018-Feb-17 22:00N 29°34' W 094°28'1 2.0
2018-Feb-17 21:29N 29°33' W 094°28'2 3.3
2018-Feb-17 20:57N 29°31' W 094°30'4 3.0
2018-Feb-17 19:48N 29°30' W 094°33'11 1.0
2018-Feb-17 08:42N 29°25' W 094°44'0 0.0
2018-Feb-17 07:36N 29°25' W 094°44'0 0.0
2018-Feb-17 07:25N 29°25' W 094°44'0 0.0
2018-Feb-17 06:58N 29°25' W 094°44'0 0.0
2018-Feb-17 06:26N 29°25' W 094°44'0 0.0
2018-Feb-17 05:59N 29°25' W 094°44'0 0.0
2018-Feb-17 05:29N 29°25' W 094°44'0 0.0
2018-Feb-17 04:48N 29°25' W 094°44'0 0.0
2018-Feb-17 04:30N 29°25' W 094°44'0 0.0
2018-Feb-17 03:52N 29°25' W 094°44'0 0.0
2018-Feb-17 02:18N 29°25' W 094°44'0 0.0
2018-Feb-17 01:55N 29°25' W 094°44'0 0.0
2018-Feb-17 01:14N 29°25' W 094°44'0 0.0
2018-Feb-17 00:46N 29°25' W 094°44'0 0.1
2018-Feb-17 00:29N 29°25' W 094°44'0 0.0
2018-Feb-16 23:57N 29°25' W 094°44'0 0.1
2018-Feb-16 23:30N 29°25' W 094°44'2 3.6
2018-Feb-16 23:00N 29°24' W 094°46'3 3.8
2018-Feb-16 22:19N 29°22' W 094°48'1 3.0
2018-Feb-16 21:59N 29°23' W 094°49'6 3.3
2018-Feb-16 20:02N 29°29' W 094°52'1 7.2
2018-Feb-16 19:57N 29°30' W 094°52'3 7.5
2018-Feb-16 19:30N 29°32' W 094°54'4 7.7
2018-Feb-16 19:00N 29°36' W 094°57'4 7.7
2018-Feb-16 18:30N 29°39' W 094°58'4 7.9
2018-Feb-16 18:00N 29°42' W 095°01'3 6.8
2018-Feb-16 17:30N 29°45' W 095°04'2 4.0
2018-Feb-16 17:00N 29°47' W 095°05'0 0.0
2018-Feb-16 16:30N 29°47' W 095°05'0 0.0
2018-Feb-16 16:00N 29°47' W 095°05'0 0.0
2018-Feb-16 15:28N 29°47' W 095°05'0 0.0
2018-Feb-16 15:00N 29°47' W 095°05'0 0.0
2018-Feb-16 14:30N 29°47' W 095°05'0 0.0
2018-Feb-16 14:00N 29°47' W 095°05'0 0.0
2018-Feb-16 13:30N 29°47' W 095°05'0 0.0
2018-Feb-16 13:00N 29°47' W 095°05'0 0.0
2018-Feb-16 12:30N 29°47' W 095°05'0 0.0
2018-Feb-16 12:00N 29°47' W 095°05'0 0.0
2018-Feb-16 11:11N 29°47' W 095°05'0 0.0
2018-Feb-16 10:59N 29°47' W 095°05'0 0.0
2018-Feb-16 06:00N 29°47' W 095°05'0 0.0
2018-Feb-16 05:20N 29°47' W 095°05'0 0.0
2018-Feb-16 04:20N 29°47' W 095°05'0 0.0
2018-Feb-16 03:54N 29°47' W 095°05'0 0.0
2018-Feb-16 03:13N 29°47' W 095°05'0 0.0
2018-Feb-16 02:51N 29°47' W 095°05'0 0.0
2018-Feb-16 02:14N 29°47' W 095°05'0 0.0
2018-Feb-16 02:00N 29°47' W 095°05'1 0.1
2018-Feb-15 18:11N 29°47' W 095°04'0 0.0
2018-Feb-15 17:53N 29°47' W 095°04'0 0.0
2018-Feb-15 17:26N 29°47' W 095°04'0 0.0
2018-Feb-15 16:59N 29°47' W 095°04'0 0.0
2018-Feb-15 15:08N 29°47' W 095°04'0 0.0
2018-Feb-15 15:00N 29°47' W 095°04'0 0.0
2018-Feb-15 11:15N 29°47' W 095°04'0 0.0
2018-Feb-15 10:56N 29°47' W 095°04'0 0.0
2018-Feb-15 10:23N 29°47' W 095°04'0 0.0
2018-Feb-15 10:00N 29°47' W 095°04'0 0.5
2018-Feb-15 09:30N 29°47' W 095°04'0 0.0
2018-Feb-15 08:58N 29°47' W 095°04'0 0.1
2018-Feb-15 08:28N 29°47' W 095°04'0 0.0
2018-Feb-15 08:00N 29°47' W 095°04'0 0.0
2018-Feb-15 07:30N 29°47' W 095°04'0 0.0
2018-Feb-15 06:59N 29°47' W 095°04'0 0.0
2018-Feb-15 06:30N 29°47' W 095°04'0 0.0
2018-Feb-15 06:00N 29°47' W 095°04'0 0.0
2018-Feb-15 05:30N 29°47' W 095°04'0 0.0
2018-Feb-15 05:00N 29°47' W 095°04'0 0.0
2018-Feb-15 04:23N 29°47' W 095°04'0 0.0
2018-Feb-15 04:00N 29°47' W 095°04'0 0.0
2018-Feb-15 03:15N 29°47' W 095°04'0 0.0
2018-Feb-15 02:56N 29°47' W 095°04'0 0.0
2018-Feb-15 02:26N 29°47' W 095°04'2 1.4
2018-Feb-15 00:49N 29°46' W 095°05'3 5.9
2018-Feb-15 00:22N 29°44' W 095°08'3 0.4
2018-Feb-14 15:20N 29°45' W 095°12'4 6.5
2018-Feb-14 14:43N 29°44' W 095°07'2 6.5
2018-Feb-14 14:27N 29°45' W 095°06'2 0.0
2018-Feb-13 01:56N 29°45' W 095°04'3 6.3
2018-Feb-13 01:30N 29°43' W 095°01'3 6.5
2018-Feb-13 01:00N 29°41' W 094°59'4 7.7
2018-Feb-13 00:30N 29°37' W 094°57'4 7.8
2018-Feb-13 00:00N 29°34' W 094°55'4 7.2
2018-Feb-12 23:30N 29°31' W 094°53'21 0.9
2018-Feb-11 23:30N 29°32' W 094°29'3 4.2
2018-Feb-11 22:51N 29°34' W 094°27'2 5.1
2018-Feb-11 22:30N 29°34' W 094°25'7 3.4
2018-Feb-11 20:24N 29°38' W 094°18'3 6.0
2018-Feb-11 19:57N 29°39' W 094°15'3 6.0
2018-Feb-11 19:29N 29°41' W 094°12'3 5.6
2018-Feb-11 19:00N 29°41' W 094°09'3 5.6
2018-Feb-11 18:30N 29°43' W 094°07'3 5.7
2018-Feb-11 18:00N 29°45' W 094°04'3 5.6
2018-Feb-11 17:30N 29°47' W 094°02'2 4.9
2018-Feb-11 17:00N 29°49' W 093°60'2 4.8
2018-Feb-11 16:30N 29°50' W 093°57'3 6.0
2018-Feb-11 16:00N 29°52' W 093°56'4 7.1
2018-Feb-11 15:30N 29°55' W 093°53'3 5.4
2018-Feb-11 15:00N 29°57' W 093°52'1 2.5
2018-Feb-11 14:30N 29°58' W 093°51'0 0.0
2018-Feb-11 14:00N 29°58' W 093°51'0 0.0
2018-Feb-11 13:30N 29°58' W 093°51'0 0.0
2018-Feb-11 13:00N 29°58' W 093°51'0 0.0
2018-Feb-11 12:30N 29°58' W 093°51'0 0.0
2018-Feb-11 12:00N 29°58' W 093°51'0 0.0
2018-Feb-11 11:30N 29°58' W 093°51'0 0.0
2018-Feb-11 11:00N 29°58' W 093°51'0 0.0
2018-Feb-11 10:30N 29°58' W 093°51'0 0.0
2018-Feb-11 10:00N 29°58' W 093°51'0 0.0
2018-Feb-11 09:30N 29°58' W 093°51'0 0.0
2018-Feb-11 09:00N 29°58' W 093°51'0 0.0
2018-Feb-11 08:30N 29°58' W 093°51'0 0.0
2018-Feb-11 08:00N 29°58' W 093°51'0 0.0
2018-Feb-11 07:30N 29°58' W 093°51'0 0.2
2018-Feb-11 07:00N 29°58' W 093°51'0 0.3
2018-Feb-11 06:30N 29°58' W 093°51'0 0.6
2018-Feb-11 06:00N 29°58' W 093°50'3 5.7
2018-Feb-11 05:30N 29°59' W 093°47'2 3.7
2018-Feb-11 05:00N 30°01' W 093°46'0 0.0
2018-Feb-11 04:30N 30°01' W 093°46'0 0.0
2018-Feb-11 03:59N 30°01' W 093°46'0 0.1
2018-Feb-11 03:30N 30°01' W 093°46'0 0.0
2018-Feb-11 03:00N 30°01' W 093°46'0 0.1
2018-Feb-11 02:30N 30°01' W 093°46'0 0.0
2018-Feb-11 02:00N 30°01' W 093°46'0 0.0
2018-Feb-11 01:30N 30°01' W 093°46'0 0.0
2018-Feb-11 01:00N 30°01' W 093°46'0 0.1
2018-Feb-11 00:30N 30°01' W 093°46'0 0.1
2018-Feb-11 00:00N 30°01' W 093°46'1 1.8
2018-Feb-10 23:30N 30°01' W 093°45'2 4.2
2018-Feb-10 23:00N 30°03' W 093°43'2 4.4
2018-Feb-10 22:30N 30°04' W 093°41'3 4.8
2018-Feb-10 21:58N 30°04' W 093°38'2 4.7
2018-Feb-10 21:30N 30°04' W 093°35'3 4.5
2018-Feb-10 20:56N 30°04' W 093°33'2 4.7
2018-Feb-10 20:29N 30°04' W 093°30'2 4.6
2018-Feb-10 20:00N 30°04' W 093°28'2 4.6
2018-Feb-10 19:30N 30°04' W 093°25'2 4.7
2018-Feb-10 19:00N 30°04' W 093°22'2 3.6
2018-Feb-10 18:30N 30°04' W 093°20'2 4.3
2018-Feb-10 18:00N 30°06' W 093°19'1 1.1
2018-Feb-10 17:30N 30°06' W 093°18'0 0.1
2018-Feb-10 17:00N 30°06' W 093°18'0 0.0
2018-Feb-10 16:30N 30°06' W 093°18'0 0.1
2018-Feb-10 16:00N 30°06' W 093°18'0 0.1
2018-Feb-10 15:30N 30°06' W 093°18'0 0.0
2018-Feb-10 15:00N 30°06' W 093°18'0 0.0
2018-Feb-10 14:30N 30°06' W 093°18'0 0.0
2018-Feb-10 14:00N 30°06' W 093°18'0 0.0
2018-Feb-10 13:30N 30°06' W 093°18'0 0.0
2018-Feb-10 13:00N 30°06' W 093°18'0 0.0
2018-Feb-10 12:30N 30°06' W 093°18'0 0.0
2018-Feb-10 12:00N 30°06' W 093°18'0 0.0
2018-Feb-10 11:30N 30°06' W 093°18'0 0.0
2018-Feb-10 11:00N 30°06' W 093°18'  

Dump ship's entire track history